Aullville, Missouri
Current Conditions -  °F | °C
As of 12:55 PM on Saturday 25 Oct 2014 (Local Time) from KRCM Reporting Station
Clear Clear  
Wind Chill: 22°   Ceiling: Unl
Heat Index: 22°   Visibility: 10mi
Dew Point: 17°   Wind: 5mph
Humidity: 73%   Direction: 60°ENE
Pressure: 30.06"   Gusts: NA
Location:  39.0541°N, 93.6618°W
Report Text: KRCM 251755Z AUTO 06004KT 10SM CLR 22/17 A3006 RMK AO2
Loading
Personal Weather Stations






























Interactive Weather Map New forecast layout! Learn more

10-Day Weather Forecast

Advertisements
Track Severe Weather on mobile